Time;durP1;ratioP1;P1;durP2;ratioP2;P2;SDS_P1;SDS_P2;PMS_P1;PMS_P2;Temp;Humidity;BMP_temperature;BMP_pressure;BME280_temperature;BME280_humidity;BME280_pressure;Samples;Min_cycle;Max_cycle;Signal;HPM_P1;HPM_P2
2021/08/31 00:01:58;;;;;;;;;4.50;4.00;;;;;31.55;26.07;100688.13;144161;635;132914;-72
2021/08/31 00:04:35;;;;;;;;;5.25;5.25;;;;;31.62;26.29;100671.16;144175;576;132010;-72
2021/08/31 00:10:24;;;;;;;;;6.00;6.00;;;;;31.71;26.50;100687.22;144173;571;132012;-72
2021/08/31 00:12:58;;;;;;;;;6.25;6.00;;;;;32.02;26.03;100688.94;144155;569;132914;-71
2021/08/31 00:15:40;;;;;;;;;5.50;4.00;;;;;31.97;25.86;100702.22;144181;566;132010;-70
2021/08/31 00:18:19;;;;;;;;;6.00;5.00;;;;;31.83;26.04;100693.00;144168;609;132014;-70
2021/08/31 00:20:57;;;;;;;;;8.50;6.75;;;;;31.73;26.02;100690.56;144176;590;132012;-70
2021/08/31 00:23:36;;;;;;;;;7.75;7.75;;;;;31.59;26.14;100691.37;144155;618;132914;-70
2021/08/31 00:26:17;;;;;;;;;7.50;7.50;;;;;31.43;26.55;100695.00;144160;634;132012;-70
2021/08/31 00:28:58;;;;;;;;;7.50;6.25;;;;;31.12;27.26;100704.00;144162;644;132015;-72
2021/08/31 00:31:35;;;;;;;;;5.25;5.25;;;;;30.89;27.37;100703.94;144179;571;132010;-72
2021/08/31 00:34:13;;;;;;;;;5.00;5.00;;;;;30.77;27.64;100710.75;144164;607;132020;-72
2021/08/31 00:36:51;;;;;;;;;7.25;6.75;;;;;30.64;27.97;100709.47;144177;590;132012;-72
2021/08/31 00:39:25;;;;;;;;;6.50;6.25;;;;;30.42;28.83;100715.59;144160;657;131913;-72
2021/08/31 00:42:00;;;;;;;;;6.50;6.25;;;;;30.40;28.83;100721.19;144180;571;132012;-72
2021/08/31 00:44:39;;;;;;;;;6.00;5.50;;;;;30.42;28.77;100724.56;144170;569;132014;-72
2021/08/31 00:47:15;;;;;;;;;10.25;8.00;;;;;30.46;28.78;100714.28;144173;589;132012;-71
2021/08/31 00:49:52;;;;;;;;;9.75;7.75;;;;;30.49;29.31;100709.34;144153;600;132012;-70
2021/08/31 00:52:39;;;;;;;;;9.00;9.00;;;;;30.48;29.67;100715.78;144159;564;132012;-70
2021/08/31 00:55:17;;;;;;;;;7.50;7.00;;;;;30.56;29.52;100714.91;144154;616;132014;-70
2021/08/31 00:57:55;;;;;;;;;5.25;5.25;;;;;30.67;29.19;100705.56;144171;588;132012;-70
2021/08/31 01:00:37;;;;;;;;;7.50;7.50;;;;;30.78;29.01;100709.75;144154;572;132019;-70
2021/08/31 01:03:16;;;;;;;;;7.75;7.00;;;;;30.76;29.08;100707.22;144178;654;132010;-70
2021/08/31 01:05:50;;;;;;;;;8.25;8.25;;;;;30.85;29.50;100708.00;144158;605;132012;-70
2021/08/31 01:08:24;;;;;;;;;7.50;7.50;;;;;31.02;29.31;100700.66;144178;573;132010;-70
2021/08/31 01:11:04;;;;;;;;;8.25;8.25;;;;;31.01;29.42;100701.69;144166;599;132014;-70
2021/08/31 01:13:54;;;;;;;;;8.25;6.50;;;;;30.99;29.19;100701.00;144173;571;132012;-72
2021/08/31 01:16:28;;;;;;;;;9.00;7.50;;;;;30.94;29.21;100701.53;144156;572;132012;-70
2021/08/31 01:19:04;;;;;;;;;6.25;5.50;;;;;30.82;29.52;100708.37;144158;680;132020;-70
2021/08/31 01:21:44;;;;;;;;;6.50;6.50;;;;;30.55;30.11;100700.53;144161;593;131017;-71
2021/08/31 01:24:24;;;;;;;;;8.00;8.00;;;;;30.51;29.88;100718.16;144176;709;132010;-70
2021/08/31 01:27:00;;;;;;;;;9.00;9.00;;;;;30.10;30.74;100720.91;144153;777;132012;-70
2021/08/31 01:29:41;;;;;;;;;6.75;6.75;;;;;30.10;30.72;100709.22;144173;603;132012;-69
2021/08/31 01:32:24;;;;;;;;;6.50;5.00;;;;;30.10;30.79;100720.91;144152;572;132014;-70
2021/08/31 01:35:04;;;;;;;;;7.75;7.75;;;;;30.10;30.79;100718.19;144168;606;132013;-69
2021/08/31 01:37:41;;;;;;;;;8.00;8.00;;;;;30.18;30.67;100725.44;144163;609;132913;-69
2021/08/31 01:40:25;;;;;;;;;7.75;7.75;;;;;30.19;30.21;100722.56;144180;586;131020;-71
2021/08/31 01:43:04;;;;;;;;;8.25;7.00;;;;;30.25;30.25;100728.31;144157;754;132912;-70
2021/08/31 01:45:49;;;;;;;;;7.75;7.00;;;;;30.30;29.91;100729.50;144163;602;131021;-71
2021/08/31 01:48:27;;;;;;;;;7.25;7.25;;;;;30.30;30.19;100731.38;144154;603;132012;-70
2021/08/31 01:51:03;;;;;;;;;7.25;7.25;;;;;30.28;30.39;100725.25;144205;622;130021;-69
2021/08/31 01:53:37;;;;;;;;;6.25;4.75;;;;;30.29;29.99;100729.66;144163;582;132912;-71
2021/08/31 01:56:26;;;;;;;;;8.75;8.75;;;;;30.31;30.46;100730.34;144201;570;131012;-71
2021/08/31 01:59:15;;;;;;;;;8.25;8.25;;;;;30.39;30.26;100723.03;144181;570;132911;-71
2021/08/31 02:01:53;;;;;;;;;6.75;6.75;;;;;30.40;30.34;100718.50;144198;578;131008;-71
2021/08/31 02:04:32;;;;;;;;;7.50;7.50;;;;;30.33;30.41;100720.19;144202;667;130912;-71
2021/08/31 02:07:13;;;;;;;;;8.00;8.00;;;;;30.24;30.57;100726.62;144198;748;131012;-71
2021/08/31 02:09:54;;;;;;;;;7.25;6.75;;;;;30.24;30.61;100726.62;144181;567;131481;-71
2021/08/31 02:12:38;;;;;;;;;7.50;6.75;;;;;30.19;30.75;100717.16;144190;743;131013;-72
2021/08/31 02:15:14;;;;;;;;;8.75;7.75;;;;;29.93;31.54;100717.34;144186;574;131914;-72
2021/08/31 02:17:52;;;;;;;;;6.25;6.25;;;;;29.94;31.39;100719.06;144206;581;131010;-72
2021/08/31 02:20:39;;;;;;;;;9.50;9.50;;;;;29.97;31.78;100720.56;144181;604;130037;-72
2021/08/31 02:23:22;;;;;;;;;11.50;9.75;;;;;30.04;31.55;100721.56;144196;670;131012;-71
2021/08/31 02:25:58;;;;;;;;;11.50;9.75;;;;;29.79;32.15;100728.84;144184;639;131031;-71
2021/08/31 02:28:48;;;;;;;;;5.50;5.50;;;;;29.90;32.16;100730.41;144203;606;130021;-69
2021/08/31 02:31:26;;;;;;;;;8.75;8.75;;;;;29.96;31.83;100724.28;144191;588;131911;-71
2021/08/31 02:34:04;;;;;;;;;7.25;6.25;;;;;29.93;31.94;100739.00;144202;638;131012;-71
2021/08/31 02:36:44;;;;;;;;;7.75;7.75;;;;;30.13;31.86;100733.25;144187;613;131912;-70
2021/08/31 02:39:20;;;;;;;;;8.25;8.00;;;;;30.20;31.23;100740.50;144192;573;131008;-73
2021/08/31 02:42:01;;;;;;;;;8.25;6.50;;;;;30.11;31.48;100741.53;144183;663;131015;-70
2021/08/31 02:44:40;;;;;;;;;8.00;8.00;;;;;29.95;31.76;100753.22;144202;608;131010;-70
2021/08/31 02:47:24;;;;;;;;;8.00;8.00;;;;;29.92;31.49;100753.53;144179;614;131913;-69
2021/08/31 02:49:59;;;;;;;;;11.50;8.00;;;;;29.90;31.74;100757.47;144179;581;132010;-69
2021/08/31 02:52:41;;;;;;;;;9.50;9.00;;;;;29.85;31.97;100756.09;144170;615;131014;-69
2021/08/31 02:55:24;;;;;;;;;7.75;7.25;;;;;29.78;31.66;100755.03;144190;600;131026;-70
2021/08/31 02:58:00;;;;;;;;;7.25;7.00;;;;;29.77;31.75;100757.91;144183;590;131915;-69
2021/08/31 03:00:41;;;;;;;;;9.75;8.75;;;;;29.71;31.89;100759.44;144191;583;131012;-72
2021/08/31 03:03:18;;;;;;;;;7.00;7.00;;;;;29.66;31.69;100761.78;144172;574;131914;-70
2021/08/31 03:05:53;;;;;;;;;8.00;7.50;;;;;29.69;32.00;100780.41;144173;613;131012;-69
2021/08/31 03:08:39;;;;;;;;;7.75;6.25;;;;;29.66;32.16;100772.59;144170;665;132913;-69
2021/08/31 03:11:15;;;;;;;;;6.75;6.75;;;;;29.57;32.18;100779.00;144179;588;132010;-71
2021/08/31 03:13:52;;;;;;;;;6.00;6.00;;;;;29.53;32.25;100776.63;144172;597;131019;-70
2021/08/31 03:16:36;;;;;;;;;7.50;7.50;;;;;29.31;32.60;100779.97;144193;582;130020;-71
2021/08/31 03:19:50;;;;;;;;;4.25;3.00;;;;;29.32;32.63;100784.34;144178;592;130912;-71
2021/08/31 03:22:27;;;;;;;;;9.50;7.75;;;;;29.32;32.43;100787.06;144191;658;131010;-70
2021/08/31 03:25:34;;;;;;;;;7.25;7.00;;;;;29.36;32.39;100780.31;144182;579;132912;-68
2021/08/31 03:28:08;;;;;;;;;9.25;9.00;;;;;29.34;32.54;100785.87;144186;608;131020;-71
2021/08/31 03:30:45;;;;;;;;;10.00;9.00;;;;;29.32;32.78;100782.50;144176;569;131912;-71
2021/08/31 03:33:36;;;;;;;;;7.50;7.50;;;;;29.33;32.79;100777.94;144173;599;131012;-71
2021/08/31 03:36:11;;;;;;;;;8.75;8.75;;;;;29.38;32.40;100783.72;144174;605;131012;-72
2021/08/31 03:38:45;;;;;;;;;8.75;8.00;;;;;29.44;32.38;100793.00;144195;574;131010;-70
2021/08/31 03:41:23;;;;;;;;;9.25;9.25;;;;;29.45;32.63;100790.13;144169;583;131914;-70
2021/08/31 03:43:58;;;;;;;;;9.00;8.25;;;;;29.42;32.82;100790.47;144195;563;130021;-69
2021/08/31 03:46:36;;;;;;;;;10.50;7.50;;;;;29.51;32.25;100792.19;144175;569;131912;-69
2021/08/31 03:49:13;;;;;;;;;7.25;7.25;;;;;29.67;32.14;100795.94;144185;591;132011;-69
2021/08/31 03:52:04;;;;;;;;;8.50;8.00;;;;;29.83;32.09;100804.09;144168;579;132012;-69
2021/08/31 03:54:41;;;;;;;;;7.00;7.00;;;;;29.93;31.72;100811.22;144178;583;131022;-70
2021/08/31 03:57:16;;;;;;;;;8.25;8.25;;;;;29.95;31.72;100823.59;144154;609;132020;-70
2021/08/31 03:59:54;;;;;;;;;8.25;8.00;;;;;29.91;31.82;100821.38;144168;599;131012;-71
2021/08/31 04:02:31;;;;;;;;;8.25;8.25;;;;;29.95;31.28;100831.72;144153;587;132915;-70
2021/08/31 04:05:07;;;;;;;;;7.00;7.00;;;;;29.92;31.54;100832.03;144177;611;132011;-71
2021/08/31 04:07:41;;;;;;;;;10.50;7.00;;;;;29.93;31.35;100835.59;144149;585;132014;-71
2021/08/31 04:10:23;;;;;;;;;13.00;10.00;;;;;29.90;31.93;100838.62;144181;569;132012;-72
2021/08/31 04:13:02;;;;;;;;;9.25;9.25;;;;;29.78;31.46;100836.19;144157;608;132020;-72
2021/08/31 04:15:39;;;;;;;;;13.00;8.00;;;;;29.77;31.59;100834.53;144177;566;132010;-73
2021/08/31 04:18:14;;;;;;;;;8.25;8.25;;;;;29.75;31.99;100835.69;144168;580;132014;-70
2021/08/31 04:20:49;;;;;;;;;12.25;9.00;;;;;29.72;31.92;100831.47;144176;590;133027;-69
2021/08/31 04:23:23;;;;;;;;;8.25;8.25;;;;;29.67;31.82;100834.66;144155;613;132912;-69
2021/08/31 04:25:58;;;;;;;;;8.25;7.25;;;;;29.63;32.46;100829.75;144162;609;132012;-71
2021/08/31 04:28:41;;;;;;;;;8.00;8.00;;;;;29.65;32.17;100827.72;144153;591;132014;-70
2021/08/31 04:31:15;;;;;;;;;7.25;7.25;;;;;29.69;32.65;100823.69;144183;738;131020;-70
2021/08/31 04:34:03;;;;;;;;;9.00;6.00;;;;;29.63;32.83;100816.22;144155;601;132015;-69
2021/08/31 04:36:44;;;;;;;;;7.25;6.25;;;;;29.78;32.73;100819.97;144175;592;132010;-69
2021/08/31 04:39:23;;;;;;;;;9.25;9.25;;;;;29.80;32.31;100827.91;144156;576;132020;-69
2021/08/31 04:42:03;;;;;;;;;9.50;9.25;;;;;29.86;32.46;100828.12;144182;706;131020;-70
2021/08/31 04:44:38;;;;;;;;;12.00;10.25;;;;;29.86;32.63;100838.94;144167;594;132020;-70
2021/08/31 04:47:34;;;;;;;;;10.50;10.50;;;;;29.87;32.58;100835.25;144181;600;132008;-69
2021/08/31 04:50:09;;;;;;;;;8.75;7.25;;;;;29.99;32.73;100835.78;144155;579;132021;-74
2021/08/31 04:52:46;;;;;;;;;12.50;11.50;;;;;30.07;32.83;100844.91;144171;571;131008;-73
2021/08/31 04:55:29;;;;;;;;;12.50;11.50;;;;;30.14;32.96;100841.38;144171;686;131012;-74
2021/08/31 04:58:08;;;;;;;;;7.00;7.00;;;;;30.23;32.82;100841.38;144192;578;130021;-73
2021/08/31 05:00:45;;;;;;;;;15.75;12.50;;;;;30.36;32.21;100845.25;144173;602;131912;-74
2021/08/31 05:03:51;;;;;;;;;13.00;11.50;;;;;30.48;31.41;100843.09;144179;662;132010;-69
2021/08/31 05:06:35;;;;;;;;;13.50;12.00;;;;;30.59;31.88;100857.28;144172;623;131914;-69
2021/08/31 05:09:13;;;;;;;;;16.00;13.75;;;;;30.80;31.23;100856.75;144188;580;131012;-71
2021/08/31 05:11:59;;;;;;;;;12.75;12.75;;;;;30.90;30.73;100857.41;144188;708;130021;-71
2021/08/31 05:14:38;;;;;;;;;11.25;10.25;;;;;30.99;30.55;100855.50;144193;565;131010;-69
2021/08/31 05:17:24;;;;;;;;;15.25;12.50;;;;;30.96;29.51;100855.84;144158;605;132914;-68
2021/08/31 05:20:15;;;;;;;;;11.75;11.75;;;;;30.92;29.60;100846.38;144178;610;130023;-69
2021/08/31 05:22:54;;;;;;;;;11.00;9.50;;;;;31.02;29.57;100858.75;144156;585;132012;-68
2021/08/31 05:25:34;;;;;;;;;11.00;10.25;;;;;31.02;30.21;100856.03;144179;577;132010;-68
2021/08/31 05:28:12;;;;;;;;;11.00;11.00;;;;;30.99;30.45;100858.22;144178;601;131021;-68
2021/08/31 05:30:54;;;;;;;;;11.50;11.50;;;;;31.15;30.21;100855.50;144191;569;131012;-68
2021/08/31 05:33:29;;;;;;;;;12.50;11.50;;;;;31.21;30.20;100857.50;144166;601;132912;-68
2021/08/31 05:36:07;;;;;;;;;9.00;9.00;;;;;31.26;30.21;100840.69;144192;569;131012;-68
2021/08/31 05:38:45;;;;;;;;;14.25;13.00;;;;;31.55;30.55;100855.50;144185;624;131014;-69
2021/08/31 05:41:21;;;;;;;;;12.75;12.00;;;;;31.83;29.66;100852.31;144191;630;131012;-70
2021/08/31 05:43:57;;;;;;;;;14.50;13.25;;;;;31.55;30.54;100845.50;144172;705;132912;-69
2021/08/31 05:46:32;;;;;;;;;9.25;9.00;;;;;31.92;29.45;100845.81;144175;626;131012;-69
2021/08/31 05:49:12;;;;;;;;;12.25;10.00;;;;;31.99;29.64;100845.94;144159;579;132020;-69
2021/08/31 05:51:47;;;;;;;;;10.00;10.00;;;;;32.31;29.73;100849.44;144190;622;131010;-70
2021/08/31 05:54:25;;;;;;;;;9.25;9.25;;;;;32.61;29.10;100849.53;144163;578;131914;-70
2021/08/31 05:57:09;;;;;;;;;9.50;7.75;;;;;32.81;28.72;100845.25;144192;564;130021;-70
2021/08/31 05:59:44;;;;;;;;;10.50;10.50;;;;;33.14;28.07;100854.94;144173;577;131020;-71
2021/08/31 06:02:27;;;;;;;;;12.00;12.00;;;;;33.33;27.60;100846.22;144181;609;131021;-70
2021/08/31 06:05:04;;;;;;;;;10.75;10.25;;;;;33.51;27.52;100848.53;144185;577;131021;-70
2021/08/31 06:07:47;;;;;;;;;11.50;10.25;;;;;33.78;27.26;100839.84;144195;565;131012;-70
2021/08/31 06:10:24;;;;;;;;;12.75;11.75;;;;;33.89;27.13;100836.63;144172;586;131912;-69
2021/08/31 06:13:00;;;;;;;;;5.50;5.50;;;;;33.80;27.35;100826.87;144160;701;132010;-69
2021/08/31 06:15:35;;;;;;;;;11.75;10.50;;;;;34.23;26.74;100833.16;144173;765;131020;-70
2021/08/31 06:18:16;;;;;;;;;9.25;9.25;;;;;33.98;27.31;100834.59;144198;741;130021;-73
2021/08/31 06:21:03;;;;;;;;;11.00;9.50;;;;;34.39;26.61;100836.66;144174;637;131014;-73
2021/08/31 06:23:42;;;;;;;;;8.25;8.00;;;;;34.47;26.03;100850.16;144190;563;131008;-73
2021/08/31 06:26:20;;;;;;;;;10.75;10.75;;;;;34.23;26.22;100835.06;144173;569;131915;-73
2021/08/31 06:28:56;;;;;;;;;10.75;10.50;;;;;34.24;26.12;100837.59;144197;605;130020;-73
2021/08/31 06:31:34;;;;;;;;;13.00;13.00;;;;;33.67;27.37;100846.63;144181;614;131914;-73
2021/08/31 06:34:12;;;;;;;;;10.25;10.00;;;;;34.25;26.42;100849.31;144188;759;131011;-73
2021/08/31 06:36:48;;;;;;;;;14.75;12.00;;;;;34.71;26.24;100851.59;144173;654;131914;-73
2021/08/31 06:39:28;;;;;;;;;12.00;11.75;;;;;34.04;26.86;100852.91;144176;621;131010;-73
2021/08/31 06:42:02;;;;;;;;;10.50;10.50;;;;;33.70;27.18;100854.41;144161;569;131914;-73
2021/08/31 06:44:38;;;;;;;;;12.75;11.00;;;;;34.34;26.17;100852.78;144193;632;131010;-74
2021/08/31 06:47:15;;;;;;;;;14.50;13.25;;;;;34.70;25.72;100868.16;144170;570;131914;-72
2021/08/31 06:49:56;;;;;;;;;11.25;10.50;;;;;34.60;26.28;100865.78;144181;574;132020;-72
2021/08/31 06:52:34;;;;;;;;;11.25;11.25;;;;;33.43;28.37;100864.94;144156;573;132012;-73
2021/08/31 06:55:17;;;;;;;;;7.00;5.50;;;;;32.97;29.33;100868.72;144176;587;132012;-74
2021/08/31 06:57:54;;;;;;;;;11.50;11.00;;;;;33.39;29.01;100863.66;144167;722;132915;-72
2021/08/31 07:00:50;;;;;;;;;7.50;7.50;;;;;34.28;27.78;100861.69;144169;626;133020;-73
2021/08/31 07:03:44;;;;;;;;;9.50;8.00;;;;;34.45;28.20;100871.31;144160;633;132013;-73
2021/08/31 07:06:20;;;;;;;;;6.75;6.75;;;;;34.18;28.75;100867.47;144163;595;132012;-73
2021/08/31 07:09:05;;;;;;;;;8.25;7.00;;;;;34.11;29.04;100867.41;144155;608;132012;-72
2021/08/31 07:11:43;;;;;;;;;8.50;7.75;;;;;34.96;27.98;100870.22;144175;766;132012;-73
2021/08/31 07:14:22;;;;;;;;;11.00;10.50;;;;;33.96;28.66;100859.31;144155;569;132012;-73
2021/08/31 07:17:17;;;;;;;;;7.75;7.75;;;;;33.84;28.92;100867.13;144179;581;131035;-73
2021/08/31 07:19:54;;;;;;;;;6.50;6.50;;;;;33.66;29.33;100872.97;144152;578;132014;-73
2021/08/31 07:22:37;;;;;;;;;9.50;9.50;;;;;33.18;29.87;100867.94;144174;695;132032;-73
2021/08/31 07:28:28;;;;;;;;;9.25;9.25;;;;;32.60;30.86;100864.13;144174;577;132012;-72
2021/08/31 07:31:08;;;;;;;;;7.75;6.75;;;;;32.68;29.97;100867.63;144164;600;131912;-73
2021/08/31 07:33:44;;;;;;;;;8.25;8.25;;;;;32.52;30.45;100867.75;144165;696;131023;-73
2021/08/31 07:36:25;;;;;;;;;6.50;6.50;;;;;31.76;31.55;100873.06;144152;622;132014;-74
2021/08/31 07:39:02;;;;;;;;;7.75;7.75;;;;;32.02;30.67;100873.56;144178;593;132008;-73
2021/08/31 07:41:38;;;;;;;;;7.00;7.00;;;;;31.73;30.42;100874.25;144156;571;132012;-72
2021/08/31 07:44:21;;;;;;;;;5.75;5.75;;;;;32.29;29.77;100879.50;144179;563;132012;-72
2021/08/31 07:46:57;;;;;;;;;5.75;5.75;;;;;32.02;29.10;100876.28;144158;593;132012;-72
2021/08/31 07:49:35;;;;;;;;;7.50;7.50;;;;;32.56;28.22;100880.81;144186;609;132010;-72
2021/08/31 07:52:18;;;;;;;;;7.25;7.00;;;;;33.02;28.09;100884.47;144177;626;131016;-71
2021/08/31 07:55:21;;;;;;;;;4.75;4.75;;;;;33.80;27.07;100879.44;144181;569;132013;-72
2021/08/31 07:57:56;;;;;;;;;4.00;4.00;;;;;33.46;27.28;100885.50;144165;595;132012;-71
2021/08/31 08:00:36;;;;;;;;;6.00;6.00;;;;;34.13;26.70;100880.84;144172;600;131020;-71
2021/08/31 08:03:12;;;;;;;;;5.00;5.00;;;;;34.06;26.08;100886.22;144162;577;131912;-71
2021/08/31 08:05:55;;;;;;;;;5.75;5.75;;;;;34.79;24.90;100891.50;144174;617;132012;-70
2021/08/31 08:08:36;;;;;;;;;5.00;5.00;;;;;34.53;25.57;100892.97;144155;710;132015;-71
2021/08/31 08:11:22;;;;;;;;;4.75;4.50;;;;;34.47;25.82;100896.47;144182;584;132010;-71
2021/08/31 08:14:02;;;;;;;;;8.00;6.50;;;;;34.78;25.48;100894.44;144156;610;132912;-71
2021/08/31 08:16:45;;;;;;;;;2.75;2.75;;;;;34.32;25.50;100890.28;144180;615;132010;-71
2021/08/31 08:19:24;;;;;;;;;5.00;5.00;;;;;33.41;25.87;100891.53;144172;563;132012;-71
2021/08/31 08:22:09;;;;;;;;;4.50;4.50;;;;;33.70;26.23;100882.44;144177;632;132012;-71
2021/08/31 08:24:48;;;;;;;;;5.00;4.75;;;;;35.09;24.28;100883.12;144156;595;132018;-70
2021/08/31 08:27:25;;;;;;;;;4.50;4.50;;;;;34.89;23.78;100875.62;144159;598;132012;-71
2021/08/31 08:30:12;;;;;;;;;4.00;4.00;;;;;35.86;22.39;100867.53;144156;574;132914;-71
2021/08/31 08:32:58;;;;;;;;;5.75;5.25;;;;;34.97;23.12;100871.94;144176;597;132012;-70
2021/08/31 08:35:39;;;;;;;;;4.75;4.75;;;;;34.64;23.55;100871.66;144160;625;132018;-72
2021/08/31 08:38:19;;;;;;;;;5.25;5.25;;;;;34.22;23.49;100866.06;144181;580;132010;-72
2021/08/31 08:40:54;;;;;;;;;7.50;6.75;;;;;34.55;23.84;100866.34;144158;650;132014;-70
2021/08/31 08:43:34;;;;;;;;;5.50;5.25;;;;;34.50;24.14;100870.72;144183;564;132010;-71
2021/08/31 08:46:16;;;;;;;;;6.25;5.00;;;;;34.89;22.58;100870.19;144174;602;132914;-70
2021/08/31 08:48:58;;;;;;;;;6.25;4.50;;;;;33.97;23.99;100861.00;144178;632;131020;-71
2021/08/31 08:51:36;;;;;;;;;4.00;4.00;;;;;33.29;23.69;100858.50;144157;566;132018;-70
2021/08/31 08:54:12;;;;;;;;;4.25;4.25;;;;;33.55;23.38;100860.72;144162;590;132012;-72
2021/08/31 08:56:59;;;;;;;;;6.00;4.75;;;;;34.16;23.44;100864.97;144157;628;132020;-72
2021/08/31 09:02:36;;;;;;;;;9.25;8.00;;;;;33.64;24.33;100855.16;144169;601;131021;-69
2021/08/31 09:05:14;;;;;;;;;4.50;3.25;;;;;33.50;25.01;100854.16;144176;620;132012;-70
2021/08/31 09:07:47;;;;;;;;;5.25;5.25;;;;;33.92;24.29;100857.19;144157;634;132012;-69
2021/08/31 09:10:25;;;;;;;;;5.00;5.00;;;;;33.51;25.07;100853.97;144174;606;132013;-70
2021/08/31 09:13:00;;;;;;;;;4.75;4.75;;;;;33.28;25.72;100851.38;144171;611;132915;-71
2021/08/31 09:15:46;;;;;;;;;7.75;5.75;;;;;33.51;25.61;100851.25;144181;566;132013;-69
2021/08/31 09:18:25;;;;;;;;;5.50;5.50;;;;;33.17;26.56;100846.38;144160;580;132014;-74
2021/08/31 09:21:04;;;;;;;;;7.00;5.75;;;;;33.40;26.32;100847.13;144162;609;132012;-71
2021/08/31 09:23:41;;;;;;;;;8.25;6.50;;;;;32.88;26.95;100843.47;144160;625;132015;-73
2021/08/31 09:26:18;;;;;;;;;6.00;5.75;;;;;33.71;25.20;100835.16;144178;610;132010;-69
2021/08/31 09:28:54;;;;;;;;;6.00;6.00;;;;;33.60;26.16;100837.50;144160;587;132012;-71
2021/08/31 09:31:28;;;;;;;;;8.75;7.00;;;;;34.23;25.82;100838.62;144175;679;132008;-73
2021/08/31 09:34:02;;;;;;;;;6.00;5.75;;;;;34.06;26.21;100838.06;144155;621;132018;-70
2021/08/31 09:36:39;;;;;;;;;7.50;5.50;;;;;34.28;26.08;100831.72;144178;571;132012;-71
2021/08/31 09:39:13;;;;;;;;;5.50;5.00;;;;;34.49;26.41;100819.97;144172;625;132916;-78
2021/08/31 09:41:48;;;;;;;;;6.00;5.75;;;;;35.11;25.67;100836.53;144183;588;131026;-76
2021/08/31 09:44:27;;;;;;;;;6.00;5.50;;;;;35.97;24.30;100819.63;144157;616;132027;-76
2021/08/31 09:47:07;;;;;;;;;5.75;5.75;;;;;36.69;22.76;100818.97;144165;610;132010;-78
2021/08/31 09:49:41;;;;;;;;;7.50;7.50;;;;;36.17;23.41;100816.91;144158;573;132020;-75
2021/08/31 09:52:20;;;;;;;;;7.25;6.25;;;;;36.51;23.78;100808.72;144179;631;131021;-75
2021/08/31 09:54:54;;;;;;;;;6.50;5.75;;;;;36.34;24.31;100814.62;144158;611;133019;-72
2021/08/31 09:57:41;;;;;;;;;5.50;5.50;;;;;36.62;23.16;100804.50;144182;613;131020;-73
2021/08/31 10:00:18;;;;;;;;;6.00;4.00;;;;;36.41;23.58;100806.41;144156;630;132018;-72
2021/08/31 10:02:52;;;;;;;;;6.00;6.00;;;;;36.07;22.47;100800.94;144181;585;131023;-73
2021/08/31 10:05:26;;;;;;;;;6.00;6.00;;;;;36.40;23.66;100800.13;144172;586;132012;-73
2021/08/31 10:08:04;;;;;;;;;6.50;6.50;;;;;36.36;23.02;100803.47;144177;646;132011;-72
2021/08/31 10:10:39;;;;;;;;;6.00;6.00;;;;;36.47;23.35;100800.13;144160;584;132012;-72
2021/08/31 10:13:18;;;;;;;;;9.50;8.25;;;;;36.14;23.62;100795.47;144166;622;132010;-73
2021/08/31 10:15:58;;;;;;;;;6.25;6.25;;;;;36.42;23.35;100791.72;144155;569;132916;-73
2021/08/31 10:18:33;;;;;;;;;8.75;8.75;;;;;36.36;25.54;100793.41;144186;565;131012;-71
2021/08/31 10:21:17;;;;;;;;;6.00;6.00;;;;;36.22;25.45;100789.78;144155;630;132020;-73
2021/08/31 10:23:52;;;;;;;;;8.25;8.00;;;;;35.45;27.70;100796.63;144176;583;132010;-71
2021/08/31 10:26:46;;;;;;;;;8.50;8.50;;;;;36.45;24.17;100784.97;144152;624;132915;-72
2021/08/31 10:29:29;;;;;;;;;6.75;6.75;;;;;36.11;25.89;100787.69;144178;601;132012;-72
2021/08/31 10:32:03;;;;;;;;;5.00;5.00;;;;;36.81;24.50;100773.53;144166;657;132019;-72
2021/08/31 10:34:42;;;;;;;;;7.25;7.25;;;;;36.46;25.70;100773.81;144175;663;132012;-72
2021/08/31 10:37:21;;;;;;;;;7.50;7.00;;;;;34.99;27.32;100770.81;144160;622;132015;-72
2021/08/31 10:40:00;;;;;;;;;6.00;6.00;;;;;36.52;25.05;100770.22;144164;691;132010;-73
2021/08/31 10:42:45;;;;;;;;;7.00;7.00;;;;;36.30;25.36;100768.78;144159;588;132018;-72
2021/08/31 10:45:55;;;;;;;;;6.25;6.25;;;;;36.11;25.00;100751.34;144179;594;131045;-72
2021/08/31 10:48:39;;;;;;;;;7.50;7.50;;;;;35.81;25.36;100757.19;144153;566;132917;-73
2021/08/31 10:51:17;;;;;;;;;5.00;5.00;;;;;36.08;25.99;100756.16;144176;569;131020;-72
2021/08/31 10:53:54;;;;;;;;;9.00;8.00;;;;;36.40;25.55;100758.28;144156;588;132916;-73
2021/08/31 10:56:33;;;;;;;;;7.00;7.00;;;;;35.51;26.83;100746.66;144179;566;131020;-73
2021/08/31 10:59:09;;;;;;;;;6.25;6.25;;;;;36.60;25.66;100750.03;144174;576;132915;-73
2021/08/31 11:01:47;;;;;;;;;8.00;8.00;;;;;36.80;25.79;100749.13;144178;613;132010;-73
2021/08/31 11:04:35;;;;;;;;;6.75;6.75;;;;;36.40;26.40;100740.00;144159;577;132915;-72
2021/08/31 11:07:09;;;;;;;;;7.25;7.00;;;;;36.83;25.93;100746.00;144161;580;132012;-72
2021/08/31 11:09:44;;;;;;;;;6.75;5.00;;;;;36.58;25.61;100742.06;144154;604;132014;-73
2021/08/31 11:12:18;;;;;;;;;5.00;5.00;;;;;36.62;24.84;100752.53;144177;561;132010;-72
2021/08/31 11:14:57;;;;;;;;;7.25;7.25;;;;;36.44;25.21;100734.09;144160;660;132013;-72
2021/08/31 11:17:50;;;;;;;;;6.00;6.00;;;;;35.90;26.05;100739.59;144182;638;132010;-73
2021/08/31 11:20:32;;;;;;;;;7.75;7.75;;;;;35.82;25.98;100737.91;144158;594;132018;-71
2021/08/31 11:23:35;;;;;;;;;6.25;6.25;;;;;35.77;26.42;100731.34;144179;565;132009;-72
2021/08/31 11:26:09;;;;;;;;;8.00;7.75;;;;;35.82;25.67;100729.72;144171;573;132917;-71
2021/08/31 11:28:43;;;;;;;;;8.00;8.00;;;;;35.67;25.96;100729.88;144184;730;131021;-72
2021/08/31 11:31:18;;;;;;;;;7.75;7.75;;;;;35.91;25.51;100733.91;144157;564;132012;-72
2021/08/31 11:33:56;;;;;;;;;6.00;6.00;;;;;35.68;26.61;100728.00;144161;624;132010;-72
2021/08/31 11:36:31;;;;;;;;;5.75;5.75;;;;;36.28;26.20;100730.75;144153;621;132014;-72
2021/08/31 11:39:10;;;;;;;;;8.25;7.75;;;;;35.90;27.92;100726.75;144179;638;132010;-72
2021/08/31 11:41:48;;;;;;;;;10.50;9.50;;;;;36.21;27.85;100736.22;144148;563;132018;-72
2021/08/31 11:44:24;;;;;;;;;7.75;7.75;;;;;36.09;27.43;100733.28;144175;624;132012;-72
2021/08/31 11:47:00;;;;;;;;;7.75;7.75;;;;;36.46;27.71;100734.69;144160;584;132012;-72
2021/08/31 11:49:36;;;;;;;;;8.25;8.25;;;;;36.73;27.27;100724.53;144179;589;132010;-73
2021/08/31 11:52:19;;;;;;;;;10.00;9.00;;;;;35.49;28.41;100733.22;144167;603;132012;-72
2021/08/31 11:54:56;;;;;;;;;8.00;7.00;;;;;34.70;29.79;100729.13;144177;615;132012;-72
2021/08/31 11:57:37;;;;;;;;;3.00;3.00;;;;;35.15;28.62;100729.53;144158;597;132917;-72
2021/08/31 12:00:14;;;;;;;;;8.00;8.00;;;;;36.37;27.25;100717.72;144167;656;131021;-73
2021/08/31 12:02:48;;;;;;;;;7.25;7.25;;;;;36.87;26.23;100719.91;144155;612;132014;-72
2021/08/31 12:05:22;;;;;;;;;8.50;8.50;;;;;36.97;26.38;100720.25;144177;688;132013;-72
2021/08/31 12:07:57;;;;;;;;;7.25;7.25;;;;;36.92;26.79;100722.78;144158;575;132916;-73
2021/08/31 12:10:31;;;;;;;;;8.25;7.50;;;;;36.58;26.68;100720.19;144174;590;132012;-73
2021/08/31 12:13:05;;;;;;;;;7.00;7.00;;;;;35.61;28.62;100713.47;144162;564;131915;-74
2021/08/31 12:15:40;;;;;;;;;8.75;8.75;;;;;35.03;29.83;100706.62;144182;583;132010;-74
2021/08/31 12:18:13;;;;;;;;;8.00;8.00;;;;;34.63;29.98;100712.72;144171;563;132018;-74
2021/08/31 12:20:47;;;;;;;;;8.50;7.50;;;;;35.56;28.96;100700.47;144176;578;132010;-73